createdAt,value
2019-01-16T06:44:27.853Z,0.00
2019-01-16T06:45:27.821Z,0.00
2019-01-16T06:46:27.864Z,0.00
2019-01-16T06:47:27.815Z,0.00
2019-01-16T06:48:27.797Z,0.00
2019-01-16T06:49:27.769Z,0.00
2019-01-16T06:50:27.763Z,0.00
2019-01-16T06:51:27.758Z,0.00
2019-01-16T06:52:28.215Z,0.00
2019-01-16T06:53:27.728Z,0.00
2019-01-16T06:54:27.720Z,0.00
2019-01-16T06:55:27.703Z,0.00
2019-01-16T06:56:27.690Z,0.00
2019-01-16T06:57:29.009Z,0.00
2019-01-16T06:58:27.688Z,0.00
2019-01-16T06:59:27.677Z,0.00
2019-01-16T07:00:27.652Z,0.00
2019-01-16T07:01:27.649Z,0.00
2019-01-16T07:02:27.639Z,0.00
2019-01-16T07:03:27.659Z,0.00
2019-01-16T07:04:27.613Z,0.00
2019-01-16T07:05:27.627Z,0.00
2019-01-16T07:06:27.608Z,0.00
2019-01-16T07:07:27.585Z,0.00
2019-01-16T07:08:27.582Z,0.00
2019-01-16T07:09:27.560Z,0.00
2019-01-16T07:10:27.984Z,0.00
2019-01-16T07:11:27.561Z,0.00
2019-01-16T07:12:27.518Z,0.00
2019-01-16T07:13:27.513Z,0.00
2019-01-16T07:14:28.402Z,0.00
2019-01-16T07:15:27.487Z,0.00
2019-01-16T07:16:27.482Z,0.00
2019-01-16T07:17:27.480Z,0.00
2019-01-16T07:18:27.455Z,0.00
2019-01-16T07:19:27.612Z,0.00
2019-01-16T07:20:27.430Z,0.00
2019-01-16T07:21:27.429Z,0.00
2019-01-16T07:22:27.413Z,0.00
2019-01-16T07:23:27.417Z,0.00
2019-01-16T07:24:27.413Z,0.00
2019-01-16T07:25:27.381Z,0.00
2019-01-16T07:26:27.377Z,0.00
2019-01-16T07:27:27.383Z,0.00
2019-01-16T07:28:27.406Z,0.00
2019-01-16T07:29:27.416Z,5.62
2019-01-16T07:30:28.046Z,5.62
2019-01-16T07:31:27.382Z,5.62
2019-01-16T07:32:27.299Z,5.62
2019-01-16T07:33:27.325Z,5.62
2019-01-16T07:34:27.279Z,5.62
2019-01-16T07:35:27.325Z,5.62
2019-01-16T07:36:27.281Z,5.62
2019-01-16T07:37:27.252Z,5.62
2019-01-16T07:38:27.260Z,5.62
2019-01-16T07:39:27.241Z,5.62
2019-01-16T07:40:27.312Z,5.62
2019-01-16T07:41:27.241Z,5.62
2019-01-16T07:42:27.221Z,5.62
2019-01-16T07:43:27.336Z,5.62
2019-01-16T07:44:27.234Z,5.62
2019-01-16T07:45:29.883Z,5.62
2019-01-16T07:46:27.232Z,11.25
2019-01-16T07:47:27.177Z,11.25
2019-01-16T07:48:27.144Z,11.25
2019-01-16T07:49:27.175Z,11.25
2019-01-16T07:50:27.120Z,11.25
2019-01-16T07:51:27.130Z,11.25
2019-01-16T07:52:27.141Z,16.87
2019-01-16T07:53:27.146Z,16.87
2019-01-16T07:54:27.120Z,16.87
2019-01-16T07:55:27.217Z,22.50
2019-01-16T07:56:27.139Z,22.50
2019-01-16T07:57:27.076Z,22.50
2019-01-16T07:58:27.101Z,22.50
2019-01-16T07:59:27.059Z,22.50
2019-01-16T08:00:27.053Z,28.12
2019-01-16T08:01:29.147Z,28.12
2019-01-16T08:02:27.055Z,22.50
2019-01-16T08:03:28.038Z,22.50
2019-01-16T08:04:27.022Z,22.50
2019-01-16T08:05:27.029Z,22.50
2019-01-16T08:06:26.964Z,22.50
2019-01-16T08:07:26.963Z,28.12
2019-01-16T08:08:27.038Z,28.12
2019-01-16T08:09:26.938Z,33.75
2019-01-16T08:10:26.912Z,33.75
2019-01-16T08:11:26.941Z,33.75
2019-01-16T08:12:26.866Z,33.75
2019-01-16T08:13:26.898Z,33.75
2019-01-16T08:14:26.891Z,33.75
2019-01-16T08:15:26.887Z,33.75
2019-01-16T08:16:26.842Z,33.75
2019-01-16T08:17:26.815Z,33.75
2019-01-16T08:18:30.448Z,33.75
2019-01-16T08:19:26.924Z,33.75
2019-01-16T08:20:26.825Z,39.37
2019-01-16T08:21:26.777Z,39.37
2019-01-16T08:22:26.761Z,45.00
2019-01-16T08:23:26.760Z,45.00
2019-01-16T08:24:26.816Z,45.00
2019-01-16T08:25:26.768Z,39.37
2019-01-16T08:26:26.725Z,39.37
2019-01-16T08:27:26.713Z,39.37
2019-01-16T08:28:26.702Z,45.00
2019-01-16T08:29:26.682Z,45.00
2019-01-16T08:30:35.558Z,45.00
2019-01-16T08:31:51.762Z,45.00
2019-01-16T08:32:51.736Z,39.37
2019-01-16T08:33:51.730Z,39.37
2019-01-16T08:34:51.728Z,39.37
2019-01-16T08:35:51.725Z,39.37
2019-01-16T08:36:51.722Z,45.00
2019-01-16T08:37:51.674Z,45.00
2019-01-16T08:38:51.738Z,39.37
2019-01-16T08:39:51.663Z,39.37
2019-01-16T08:40:51.665Z,39.37
2019-01-16T08:41:51.682Z,39.37
2019-01-16T08:42:51.672Z,39.37
2019-01-16T08:43:51.611Z,39.37
2019-01-16T08:44:51.623Z,39.37
2019-01-16T08:45:51.588Z,39.37
2019-01-16T08:46:53.259Z,45.00
2019-01-16T08:47:51.622Z,50.62
2019-01-16T08:48:51.685Z,50.62
2019-01-16T08:49:51.583Z,56.25
2019-01-16T08:50:51.588Z,61.87
2019-01-16T08:51:51.560Z,61.87
2019-01-16T08:52:51.589Z,61.87
2019-01-16T08:53:51.524Z,61.87
2019-01-16T08:54:51.493Z,61.87
2019-01-16T08:55:51.589Z,61.87
2019-01-16T08:56:51.476Z,56.25
2019-01-16T08:57:51.476Z,56.25
2019-01-16T08:58:51.518Z,56.25
2019-01-16T08:59:51.475Z,56.25
2019-01-16T09:00:51.464Z,61.87
2019-01-16T09:01:51.461Z,67.50
2019-01-16T09:02:51.782Z,73.12
2019-01-16T09:03:51.451Z,78.75
2019-01-16T09:04:51.465Z,84.37
2019-01-16T09:05:51.393Z,78.75
2019-01-16T09:06:51.441Z,73.12
2019-01-16T09:07:51.419Z,73.12
2019-01-16T09:08:51.432Z,84.37
2019-01-16T09:09:52.406Z,84.37
2019-01-16T09:10:52.441Z,90.00
2019-01-16T09:11:51.378Z,95.62
2019-01-16T09:12:51.294Z,101.25
2019-01-16T09:13:51.293Z,95.62
2019-01-16T09:14:51.298Z,95.62
2019-01-16T09:15:51.311Z,101.25
2019-01-16T09:16:51.249Z,101.25
2019-01-16T09:17:54.288Z,106.87
2019-01-16T09:18:51.308Z,106.87
2019-01-16T09:19:51.259Z,112.50
2019-01-16T09:20:51.266Z,118.12
2019-01-16T09:21:51.220Z,123.75
2019-01-16T09:22:51.236Z,112.50
2019-01-16T09:23:51.197Z,106.87
2019-01-16T09:24:51.245Z,123.75
2019-01-16T09:25:51.207Z,118.12
2019-01-16T09:26:51.180Z,123.75
2019-01-16T09:27:51.181Z,135.00
2019-01-16T09:28:52.289Z,135.00
2019-01-16T09:29:51.172Z,135.00
2019-01-16T09:30:51.167Z,140.62
2019-01-16T09:31:51.153Z,140.62
2019-01-16T09:32:51.112Z,129.37
2019-01-16T09:33:51.095Z,118.12
2019-01-16T09:34:51.157Z,123.75
2019-01-16T09:35:51.122Z,112.50
2019-01-16T09:36:51.089Z,112.50
2019-01-16T09:37:51.026Z,106.87
2019-01-16T09:38:51.035Z,118.12
2019-01-16T09:39:51.055Z,112.50
2019-01-16T09:40:50.993Z,112.50
2019-01-16T09:41:52.091Z,112.50
2019-01-16T09:42:51.036Z,101.25
2019-01-16T09:43:51.029Z,84.37
2019-01-16T09:44:51.026Z,73.12
2019-01-16T09:45:50.998Z,61.87
2019-01-16T09:46:50.989Z,67.50
2019-01-16T09:47:50.985Z,73.12
2019-01-16T09:48:51.176Z,84.37
2019-01-16T09:49:50.994Z,90.00
2019-01-16T09:50:51.074Z,106.87
2019-01-16T09:51:50.946Z,118.12
2019-01-16T09:52:50.942Z,123.75
2019-01-16T09:53:51.019Z,112.50
2019-01-16T09:54:50.895Z,123.75
2019-01-16T09:55:50.931Z,135.00
2019-01-16T09:56:50.929Z,151.87
2019-01-16T09:57:50.842Z,146.25
2019-01-16T09:58:50.815Z,151.87
2019-01-16T09:59:50.919Z,157.50
2019-01-16T10:00:50.822Z,180.00
2019-01-16T10:01:50.856Z,202.50
2019-01-16T10:02:50.831Z,174.37
2019-01-16T10:03:50.803Z,163.12
2019-01-16T10:04:50.818Z,185.62
2019-01-16T10:05:50.821Z,191.25
2019-01-16T10:06:50.711Z,185.62
2019-01-16T10:07:50.774Z,202.50
2019-01-16T10:08:50.723Z,191.25
2019-01-16T10:09:50.729Z,185.62
2019-01-16T10:10:51.667Z,185.62
2019-01-16T10:11:50.699Z,185.62
2019-01-16T10:12:57.722Z,185.62
2019-01-16T10:14:15.959Z,140.62
2019-01-16T10:15:15.962Z,135.00
2019-01-16T10:16:21.030Z,135.00
2019-01-16T10:17:15.917Z,135.00
2019-01-16T10:18:15.886Z,140.62
2019-01-16T10:19:15.832Z,151.87
2019-01-16T10:20:15.866Z,157.50
2019-01-16T10:21:15.807Z,163.12
2019-01-16T10:22:19.123Z,180.00
2019-01-16T10:23:15.827Z,174.37
2019-01-16T10:24:15.823Z,168.75
2019-01-16T10:25:18.821Z,180.00
2019-01-16T10:26:15.761Z,208.12
2019-01-16T10:27:15.720Z,213.75
2019-01-16T10:28:15.709Z,236.25
2019-01-16T10:29:15.814Z,213.75
2019-01-16T10:30:15.685Z,191.25
2019-01-16T10:31:15.671Z,180.00
2019-01-16T10:32:15.687Z,163.12
2019-01-16T10:33:15.677Z,151.87
2019-01-16T10:34:15.699Z,163.12
2019-01-16T10:35:15.658Z,151.87
2019-01-16T10:36:15.679Z,135.00
2019-01-16T10:37:15.671Z,129.37
2019-01-16T10:38:15.620Z,140.62
2019-01-16T10:39:15.575Z,135.00
2019-01-16T10:40:16.976Z,135.00
2019-01-16T10:41:15.609Z,135.00
2019-01-16T10:42:15.554Z,163.12
2019-01-16T10:43:15.563Z,174.37
2019-01-16T10:44:15.559Z,163.12
2019-01-16T10:45:15.589Z,174.37
2019-01-16T10:46:15.547Z,185.62
2019-01-16T10:47:15.494Z,196.87
2019-01-16T10:48:16.002Z,185.62
2019-01-16T10:49:15.545Z,202.50
2019-01-16T10:50:15.603Z,213.75
2019-01-16T10:51:15.466Z,196.87
2019-01-16T10:52:15.444Z,180.00
2019-01-16T10:53:15.429Z,196.87
2019-01-16T10:54:15.433Z,168.75
2019-01-16T10:55:15.427Z,146.25
2019-01-16T10:56:15.405Z,135.00
2019-01-16T10:57:15.427Z,135.00
2019-01-16T10:58:15.420Z,129.37
2019-01-16T10:59:15.411Z,129.37
2019-01-16T11:01:15.353Z,135.00
2019-01-16T11:02:26.939Z,123.75
2019-01-16T11:03:40.804Z,123.75
2019-01-16T11:04:40.858Z,112.50
2019-01-16T11:05:41.815Z,112.50
2019-01-16T11:06:40.780Z,112.50
2019-01-16T11:07:40.862Z,118.12
2019-01-16T11:08:40.779Z,118.12
2019-01-16T11:09:40.737Z,106.87
2019-01-16T11:10:40.775Z,106.87
2019-01-16T11:11:42.131Z,106.87
2019-01-16T11:12:41.903Z,118.12
2019-01-16T11:13:40.709Z,135.00
2019-01-16T11:14:40.694Z,140.62
2019-01-16T11:15:51.746Z,151.87
2019-01-16T11:17:16.462Z,157.50
2019-01-16T11:18:16.482Z,168.75
2019-01-16T11:19:16.465Z,174.37
2019-01-16T11:20:16.474Z,168.75
2019-01-16T11:21:16.431Z,168.75
2019-01-16T11:22:16.435Z,168.75
2019-01-16T11:23:16.393Z,174.37
2019-01-16T11:24:16.398Z,174.37
2019-01-16T11:25:16.367Z,174.37
2019-01-16T11:26:16.358Z,174.37
2019-01-16T11:27:16.362Z,180.00
2019-01-16T11:28:16.347Z,180.00
2019-01-16T11:29:16.340Z,185.62
2019-01-16T11:30:16.376Z,196.87
2019-01-16T11:31:25.167Z,202.50
2019-01-16T11:32:56.267Z,202.50
2019-01-16T11:34:02.511Z,213.75
2019-01-16T11:35:21.566Z,236.25
2019-01-16T11:36:20.887Z,253.12
2019-01-16T11:37:21.294Z,258.75
2019-01-16T11:38:20.923Z,264.37
2019-01-16T11:39:20.856Z,270.00
2019-01-16T11:40:20.860Z,264.37
2019-01-16T11:41:20.834Z,247.50
2019-01-16T11:42:20.822Z,241.87
2019-01-16T11:43:21.811Z,236.25
2019-01-16T11:44:21.176Z,230.62
2019-01-16T11:45:20.807Z,196.87
2019-01-16T11:46:20.837Z,191.25
2019-01-16T11:47:20.759Z,191.25
2019-01-16T11:48:21.397Z,202.50
2019-01-16T11:49:20.741Z,208.12
2019-01-16T11:50:20.747Z,208.12
2019-01-16T11:51:20.726Z,208.12
2019-01-16T11:52:20.710Z,225.00
2019-01-16T11:53:20.700Z,253.12
2019-01-16T11:54:20.704Z,247.50
2019-01-16T11:55:21.075Z,225.00
2019-01-16T11:56:20.987Z,219.37
2019-01-16T11:57:20.665Z,230.62
2019-01-16T11:58:20.653Z,213.75
2019-01-16T11:59:20.636Z,208.12
2019-01-16T12:00:20.671Z,213.75
2019-01-16T12:01:20.612Z,202.50
2019-01-16T12:02:20.596Z,196.87
2019-01-16T12:03:20.643Z,196.87
2019-01-16T12:04:20.580Z,196.87
2019-01-16T12:05:23.356Z,196.87
2019-01-16T12:06:20.549Z,185.62
2019-01-16T12:07:20.598Z,180.00
2019-01-16T12:08:20.532Z,174.37
2019-01-16T12:09:20.571Z,174.37
2019-01-16T12:10:20.516Z,174.37
2019-01-16T12:11:20.501Z,196.87
2019-01-16T12:12:20.504Z,213.75
2019-01-16T12:13:20.487Z,213.75
2019-01-16T12:14:20.477Z,230.62
2019-01-16T12:15:20.453Z,253.12
2019-01-16T12:16:20.451Z,281.25
2019-01-16T12:17:20.448Z,298.12
2019-01-16T12:18:20.433Z,298.12
2019-01-16T12:19:20.446Z,292.50
2019-01-16T12:20:20.465Z,275.62
2019-01-16T12:21:26.282Z,247.50
2019-01-16T12:22:46.145Z,219.37
2019-01-16T12:23:46.003Z,225.00
2019-01-16T12:24:45.958Z,247.50
2019-01-16T12:25:45.940Z,264.37
2019-01-16T12:26:45.974Z,270.00
2019-01-16T12:27:45.928Z,286.87
2019-01-16T12:28:45.902Z,298.12
2019-01-16T12:29:45.882Z,286.87
2019-01-16T12:30:45.891Z,275.62
2019-01-16T12:31:45.886Z,264.37
2019-01-16T12:32:45.871Z,270.00
2019-01-16T12:33:45.865Z,281.25
2019-01-16T12:34:45.849Z,281.25
2019-01-16T12:35:45.825Z,275.62
2019-01-16T12:36:45.820Z,270.00
2019-01-16T12:37:45.805Z,275.62
2019-01-16T12:38:45.784Z,298.12
2019-01-16T12:39:45.855Z,315.00
2019-01-16T12:40:45.770Z,326.25
2019-01-16T12:41:45.822Z,309.37
2019-01-16T12:42:45.768Z,298.12
2019-01-16T12:43:45.742Z,292.50
2019-01-16T12:44:45.744Z,298.12
2019-01-16T12:45:45.715Z,281.25
2019-01-16T12:46:45.708Z,275.62
2019-01-16T12:47:45.686Z,275.62
2019-01-16T12:48:45.700Z,264.37
2019-01-16T12:49:45.675Z,253.12
2019-01-16T12:50:45.681Z,241.87
2019-01-16T12:51:46.650Z,230.62
2019-01-16T12:52:45.665Z,236.25
2019-01-16T12:53:45.702Z,236.25
2019-01-16T12:54:45.639Z,236.25
2019-01-16T12:55:45.637Z,230.62
2019-01-16T12:56:45.650Z,225.00
2019-01-16T12:57:45.586Z,225.00
2019-01-16T12:58:45.597Z,230.62
2019-01-16T12:59:45.560Z,225.00
2019-01-16T13:00:45.579Z,230.62
2019-01-16T13:01:45.543Z,236.25
2019-01-16T13:02:45.529Z,247.50
2019-01-16T13:03:45.539Z,281.25
2019-01-16T13:04:45.533Z,292.50
2019-01-16T13:05:45.558Z,320.62
2019-01-16T13:06:45.500Z,320.62
2019-01-16T13:07:45.476Z,315.00
2019-01-16T13:08:45.490Z,326.25
2019-01-16T13:09:45.453Z,348.75
2019-01-16T13:10:45.467Z,354.37
2019-01-16T13:11:45.447Z,348.75
2019-01-16T13:12:45.420Z,343.12
2019-01-16T13:13:48.520Z,331.87
2019-01-16T13:14:45.400Z,331.87
2019-01-16T13:15:45.407Z,331.87
2019-01-16T13:16:45.462Z,315.00
2019-01-16T13:17:45.444Z,315.00
2019-01-16T13:18:48.999Z,331.87
2019-01-16T13:19:45.337Z,326.25
2019-01-16T13:20:45.337Z,315.00
2019-01-16T13:21:45.323Z,326.25
2019-01-16T13:22:46.251Z,326.25
2019-01-16T13:23:45.329Z,331.87
2019-01-16T13:24:45.329Z,326.25
2019-01-16T13:25:45.287Z,315.00
2019-01-16T13:26:45.278Z,303.75
2019-01-16T13:27:45.251Z,309.37
2019-01-16T13:28:45.240Z,298.12
2019-01-16T13:29:45.235Z,281.25
2019-01-16T13:30:45.217Z,286.87
2019-01-16T13:31:45.214Z,292.50
2019-01-16T13:32:45.214Z,286.87
2019-01-16T13:33:45.207Z,275.62
2019-01-16T13:34:45.191Z,275.62
2019-01-16T13:35:45.806Z,292.50
2019-01-16T13:36:45.150Z,303.75
2019-01-16T13:37:45.152Z,292.50
2019-01-16T13:38:46.024Z,275.62
2019-01-16T13:39:45.190Z,281.25
2019-01-16T13:40:45.108Z,281.25
2019-01-16T13:41:45.550Z,275.62
2019-01-16T13:42:45.123Z,281.25
2019-01-16T13:43:45.097Z,270.00
2019-01-16T13:44:45.069Z,275.62
2019-01-16T13:45:47.088Z,275.62
